Latest Coastal Weather Observations for Sydney Airport

IDN60701

Issued at 12:05 am EST Saturday 30 August 2014 (issued every 10 minutes, with the page automatically refreshed every 10 minutes)

About coastal observations | Map of coastal stations | Coastal observations for NSW | Marine services | Other Formats
Station Details ID: 066037 Name: SYDNEY AIRPORT AMO Lat: -33.95 Lon: 151.17 Height: 6.0 m
Data from the previous 72 hours. | See also: Recent months at Sydney Airport
Date/Time
EST
Temp

°C
Wind Pressure Rain
since 9am
mm
Weather Cloud Vis
km
Sea
Height
m
Swell
Dir
 
Speed
knots
Gust
knots
hPa Trend Height
m
Period
s
Dir
30/12:00am 14.4 SSW 20 28 1023.7 - 2.4 - Mostly clear 10 - - - -
 
Date/Time
EST
Temp

°C
Wind Pressure Rain
since 9am
mm
Weather Cloud Vis
km
Sea
Height
m
Swell
Dir
 
Speed
knots
Gust
knots
hPa Trend Height
m
Period
s
Dir
29/11:30pm 14.4 SSW 21 27 1023.8 - 2.4 - Mostly clear 10 - - - -
29/11:00pm 14.5 SSW 23 29 1023.9 - 2.4 - Mostly clear 10 - - - -
29/10:30pm 14.7 SSW 21 27 1024.1 - 2.4 - Mostly clear 10 - - - -
29/10:00pm 14.7 SSW 22 32 1024.3 - 2.4 - Mostly clear 10 - - - -
29/09:30pm 15.2 SSW 23 33 1024.1 - 2.4 - Mostly clear 10 - - - -
29/09:00pm 15.1 SSW 24 34 1024.2 F 2.4 Fine Mostly clear 25 - - - -
29/08:39pm 15.0 SSW 22 32 1024.3 - 2.4 - Mostly clear 10 - - - -
29/08:30pm 15.0 SSW 23 29 1024.4 - 2.4 - Mostly clear 10 - - - -
29/08:00pm 15.1 SSW 24 34 1024.4 - 2.4 - Mostly clear 10 - - - -
29/07:30pm 15.2 S 26 36 1024.3 - 2.4 - Partly cloudy 10 - - - -
29/07:00pm 15.2 S 23 33 1024.4 - 2.4 - Partly cloudy 10 - - - -
29/06:49pm 15.1 S 22 32 1024.5 - 2.4 - Partly cloudy 10 - - - -
29/06:30pm 15.2 S 25 31 1024.3 - 2.4 - Partly cloudy 10 - - - -
29/06:00pm 15.2 S 25 35 1024.2 F 2.4 Fine Mostly clear 10 - - - -
29/05:51pm 15.3 S 23 33 1024.0 - 2.4 - Partly cloudy 10 - - - -
29/05:30pm 15.3 S 20 26 1023.9 - 2.4 - Mostly clear 10 - - - -
29/05:00pm 15.2 SSW 18 23 1023.9 - 2.4 - Partly cloudy 10 - - - -
29/04:30pm 15.3 SSW 18 28 1023.7 - 2.4 - Partly cloudy 10 - - - -
29/04:00pm 15.3 SSW 22 29 1023.8 - 2.4 - Mostly clear 10 - - - -
29/03:30pm 15.3 SSW 21 26 1023.6 - 2.4 - Mostly clear 10 - - - -
29/03:00pm 15.0 SSW 27 30 1024.0 F 2.4 Distant precip. Partly cloudy 20 - - - -
29/02:30pm 15.1 S 14 20 1024.0 - 2.0 - Mostly clear 10 - - - -
29/02:00pm 13.3 S 23 28 1024.4 - 1.6 - Mostly clear 8 - - - -
29/01:46pm 15.2 SSW 18 32 1024.3 - 1.2 Showers Mostly clear 9 - - - -
29/01:30pm 15.9 SSW 17 25 1024.4 - 1.2 - Mostly clear 10 - - - -
29/01:00pm 15.4 SSW 17 22 1024.6 - 1.2 - Mostly clear 10 - - - -
29/12:30pm 14.6 SSW 15 20 1025.0 - 1.2 - Mostly clear 8 - - - -
29/12:00pm 13.4 SSW 17 24 1025.6 R 1.2 Distant precip. Mostly cloudy 8 - - - -
29/11:30am 13.5 S 20 27 1025.8 - 0.0 Showers Mostly clear 5 - - - -
29/11:21am 15.2 S 20 24 1025.6 - 0.0 Showers Mostly clear 9 - - - -
29/11:00am 14.7 SW 15 18 1025.9 - 0.0 - Mostly clear 10 - - - -
29/10:30am 14.1 SSW 20 23 1026.2 - 0.0 - Mostly clear 10 - - - -
29/10:09am 14.7 SSW 19 29 1026.0 - 0.0 - Mostly clear 8 - - - -
29/10:00am 14.6 SSW 16 20 1026.1 - 0.0 - Mostly clear 10 - - - -
29/09:30am 13.7 SSW 16 20 1026.7 - 0.0 - Mostly clear 8 - - - -
29/09:00am 12.8 WSW 10 14 1026.6 F 1.8 Showers Mostly cloudy 8 - - - -
29/08:30am 13.4 SW 15 19 1026.6 - 1.4 - Mostly clear 9 - - - -
29/08:00am 12.3 SW 14 17 1026.8 - 1.4 - Mostly clear 10 - - - -
29/07:30am 12.2 WSW 10 12 1026.6 - 1.2 Showers Mostly clear 8 - - - -
29/07:00am 11.5 WSW 11 14 1026.1 - 1.2 - Mostly clear 10 - - - -
29/06:30am 10.1 W 8 10 1025.9 - 1.2 - Partly cloudy 10 - - - -
29/06:00am 10.0 WSW 9 15 1026.0 F 1.2 Distant precip. Partly cloudy 20 - - - -
29/05:30am 10.9 WSW 10 12 1025.7 - 1.2 - Mostly clear 10 - - - -
29/05:00am 11.0 SW 12 16 1025.6 - 1.0 - Mostly clear 10 - - - -
29/04:30am 9.8 SW 13 17 1025.6 - 0.8 Drizzle Mostly clear 10 - - - -
29/04:00am 10.3 WSW 10 12 1025.6 - 0.8 - Mostly clear 10 - - - -
29/03:30am 12.5 SW 12 15 1025.7 - 0.8 - Mostly clear 10 - - - -
29/03:00am 12.1 WSW 12 14 1025.8 F 0.8 Distant precip. Mostly clear 25 - - - -
29/02:30am 12.2 WSW 10 14 1026.0 - 0.8 - Mostly clear 10 - - - -
29/02:00am 12.5 SW 9 11 1026.2 - 0.8 - Mostly clear 10 - - - -
29/01:30am 13.0 SW 12 14 1026.4 - 0.8 - Mostly clear 10 - - - -
29/01:00am 13.0 SW 11 14 1026.9 - 0.8 - Mostly clear 10 - - - -
29/12:30am 13.2 SW 14 16 1027.0 - 0.8 - Mostly clear 10 - - - -
29/12:00am 13.2 SW 13 16 1027.2 F 0.8 DIST PRECIP Mostly clear 10 - - - -
 
Date/Time
EST
Temp

°C
Wind Pressure Rain
since 9am
mm
Weather Cloud Vis
km
Sea
Height
m
Swell
Dir
 
Speed
knots
Gust
knots
hPa Trend Height
m
Period
s
Dir
28/11:30pm 12.4 SW 11 14 1027.3 - 0.8 - Mostly clear 10 - - - -
28/11:00pm 12.6 WSW 9 13 1027.3 - 0.8 - Mostly clear 10 - - - -
28/10:30pm 13.0 SW 9 10 1027.4 - 0.8 - Mostly clear 10 - - - -
28/10:00pm 14.0 SSW 10 15 1027.6 - 0.8 - Mostly clear 10 - - - -
28/09:30pm 15.0 SSE 13 16 1027.7 - 0.8 - Partly cloudy 10 - - - -
28/09:00pm 15.3 S 12 17 1027.6 F 0.8 Fine Partly cloudy 25 - - - -
28/08:30pm 15.1 S 11 16 1027.6 - 0.8 - Partly cloudy 10 - - - -
28/08:00pm 15.3 S 11 19 1027.5 - 0.8 - Mostly clear 10 - - - -
28/07:30pm 15.1 SSE 14 17 1027.4 - 0.8 - Mostly clear 10 - - - -
28/07:00pm 15.6 S 13 17 1027.3 - 0.8 - Mostly clear 10 - - - -
28/06:30pm 15.6 S 14 18 1027.2 - 0.8 - Partly cloudy 10 - - - -
28/06:00pm 15.3 S 14 18 1027.0 R 0.8 Fine Partly cloudy 25 - - - -
28/05:30pm 15.6 S 15 18 1026.9 - 0.8 - Partly cloudy 10 - - - -
28/05:00pm 15.9 S 15 18 1026.7 - 0.8 - Mostly clear 10 - - - -
28/04:30pm 16.4 SSE 17 21 1026.4 - 0.8 - Partly cloudy 10 - - - -
28/04:00pm 16.4 S 17 21 1026.2 - 0.8 - Partly cloudy 10 - - - -
28/03:30pm 17.0 SSE 17 22 1026.1 - 0.8 - Partly cloudy 10 - - - -
28/03:00pm 16.8 S 17 21 1025.9 R 0.8 Distant precip. Partly cloudy 25 - - - -
28/02:30pm 17.2 SSE 17 21 1025.8 - 0.8 - Partly cloudy 10 - - - -
28/02:00pm 17.6 SSE 17 22 1025.7 - 0.8 - Partly cloudy 10 - - - -
28/01:30pm 17.3 SSE 19 25 1025.7 - 0.4 - Partly cloudy 10 - - - -
28/01:00pm 17.3 S 19 23 1025.6 - 0.4 - Partly cloudy 10 - - - -
28/12:30pm 17.3 SSE 17 22 1025.8 - 0.4 - Partly cloudy 10 - - - -
28/12:00pm 18.2 SSE 18 22 1026.1 R 0.4 Distant precip. Mostly cloudy 25 - - - -
28/11:30am 16.9 S 16 19 1026.4 - 0.4 - Partly cloudy 10 - - - -
28/11:00am 15.5 SE 16 26 1026.9 - 0.4 - Partly cloudy 10 - - - -
28/10:30am 17.3 SSE 17 22 1026.8 - 0.4 - Partly cloudy 10 - - - -
28/10:00am 14.9 SSW 10 16 1026.9 - 0.4 - Mostly clear 10 - - - -
28/09:30am 17.2 SSE 15 18 1026.6 - 0.0 - Partly cloudy 10 - - - -
28/09:00am 17.4 SSE 15 19 1026.7 R 13.0 Distant precip. Mostly clear 25 - - - -
28/08:30am 14.8 SSE 14 18 1026.7 - 13.0 - Mostly clear 10 - - - -
28/08:00am 14.0 SW 14 17 1026.5 - 13.0 - Mostly clear 10 - - - -
28/07:30am 13.7 S 16 22 1026.2 - 12.4 Showers Mostly clear 7 - - - -
28/07:00am 14.5 S 15 18 1025.8 - 11.8 - Mostly clear 10 - - - -
28/06:30am 13.7 S 15 18 1025.7 - 11.8 Showers Mostly clear 6 - - - -
28/06:00am 13.7 SE 14 25 1025.5 R 9.4 Showers Cloudy 4 - - - -
28/05:30am 13.6 SSW 13 17 1025.0 - 9.2 Showers Mostly clear 10 - - - -
28/05:00am 13.4 S 15 18 1024.9 - 8.2 - Mostly clear 9 - - - -
28/04:30am 13.6 S 13 15 1024.9 - 7.0 Showers Mostly clear 9 - - - -
28/04:00am 12.7 E 17 21 1024.8 - 4.6 - Mostly clear 6 - - - -
28/03:47am 13.9 SE 16 27 1024.9 - 3.4 Showers Mostly clear 6 - - - -
28/03:30am 15.3 S 17 21 1024.5 - 3.4 - Mostly clear 10 - - - -
28/03:00am 15.5 S 16 20 1024.5 S 3.4 Distant precip. Mostly cloudy 25 - - - -
28/02:30am 15.4 S 17 21 1024.5 - 3.4 - Mostly clear 10 - - - -
28/02:00am 14.9 S 15 19 1024.8 - 3.4 - Mostly clear 10 - - - -
28/01:30am 14.9 S 14 18 1024.8 - - - Mostly clear 10 - - - -
28/01:00am 13.9 SSE 17 25 1025.0 - 3.4 - Mostly clear 10 - - - -
28/12:30am 15.4 S 17 22 1025.2 - 2.6 Showers Mostly clear 10 - - - -
28/12:00am 15.5 S 17 21 1025.3 F 2.6 Fine Partly cloudy 25 - - - -
 
Date/Time
EST
Temp

°C
Wind Pressure Rain
since 9am
mm
Weather Cloud Vis
km
Sea
Height
m
Swell
Dir
 
Speed
knots
Gust
knots
hPa Trend Height
m
Period
s
Dir
27/11:30pm 15.5 S 18 23 1025.4 - 2.6 - Mostly clear 10 - - - -
27/11:00pm 15.4 S 19 23 1025.7 - 2.6 - Mostly clear 10 - - - -
27/10:30pm 15.3 S 19 23 1025.8 - 2.6 - Mostly clear 10 - - - -
27/10:00pm 15.6 S 18 21 1025.7 - 2.6 - Mostly clear 10 - - - -
27/09:30pm 15.2 S 15 20 1025.9 - 2.6 - Mostly clear 10 - - - -
27/09:00pm 15.0 SSW 14 18 1025.9 F 2.6 Distant precip. Partly cloudy 25 - - - -
27/08:30pm 15.8 S 17 20 1025.9 - 2.6 - Mostly clear 10 - - - -
27/08:00pm 15.4 S 16 19 1026.0 - 2.6 - Mostly clear 10 - - - -
27/07:30pm 15.8 S 19 24 1025.8 - 2.6 - Mostly clear 10 - - - -
27/07:00pm 16.0 SSE 20 26 1025.6 - 2.6 - Mostly clear 10 - - - -
27/06:30pm 15.9 SSE 21 27 1025.3 - 2.6 - Mostly clear 10 - - - -
27/06:00pm 16.0 SSE 21 27 1025.2 R 2.6 Fine Mostly cloudy 25 - - - -
27/05:30pm 16.2 SSE 21 25 1024.9 - 2.6 - Mostly clear 10 - - - -
27/05:00pm 16.4 SSE 19 25 1024.7 - 2.6 - Mostly clear 10 - - - -
27/04:30pm 16.4 SSE 21 26 1024.4 - 2.6 - Mostly clear 10 - - - -
27/04:00pm 16.7 S 21 26 1024.3 - 2.6 - Mostly clear 10 - - - -
27/03:30pm 16.9 SSE 21 25 1024.1 - 2.6 - Mostly clear 10 - - - -
27/03:00pm 17.2 SSE 20 25 1023.9 R 2.6 Distant precip. Partly cloudy 30 - - - -
27/02:30pm 17.2 SSE 19 24 1024.0 - 2.6 - Mostly clear 10 - - - -
27/02:00pm 16.4 SSE 16 22 1023.8 - 2.6 - Mostly clear 10 - - - -
27/01:30pm 15.9 S 20 25 1023.9 - 2.6 - Mostly clear 10 - - - -
27/01:00pm 14.3 SSE 19 25 1024.2 - 2.2 - Mostly clear 10 - - - -
27/12:46pm 16.3 SSE 20 25 1024.2 - 1.2 Showers Mostly clear 10 - - - -
27/12:30pm 15.5 S 14 20 1024.3 - 1.2 - Mostly clear 10 - - - -
27/12:00pm 14.8 S 18 26 1024.8 R 1.2 Showers Mostly cloudy 25 - - - -
27/11:43am 14.5 S 19 28 1025.3 - 0.6 Showers Mostly clear 6 - - - -
27/11:30am 16.1 S 19 22 1025.2 - 0.4 - Mostly clear 10 - - - -
27/11:00am 16.1 S 19 25 1025.2 - 0.4 - Mostly clear 10 - - - -
27/10:30am 16.0 S 20 26 1025.6 - 0.4 Showers Mostly clear 10 - - - -
27/10:00am 16.1 S 20 27 1025.5 - 0.0 - Mostly clear 10 - - - -
27/09:30am 16.2 S 19 27 1025.4 - 0.0 - Mostly clear 10 - - - -
27/09:00am 15.5 S 20 27 1025.1 R 29.0 Distant precip. Mostly cloudy 25 - - - -
27/08:30am 15.8 S 19 24 1025.1 - 28.0 - Mostly clear 10 - - - -
27/08:14am 14.9 S 17 24 1025.2 - 28.0 - Mostly clear 10 - - - -
27/08:00am 13.2 SE 9 13 1025.3 - 28.0 - Mostly clear 7 - - - -
27/07:46am 13.2 E 14 21 1025.6 - 26.2 Showers Mostly clear 6 - - - -
27/07:30am 14.3 S 18 20 1024.7 - 25.4 Showers Mostly clear 10 - - - -
27/07:00am 14.9 S 17 20 1024.4 - 25.0 - Mostly clear 10 - - - -
27/06:30am 15.4 SSE 17 22 1024.1 - 25.0 - Mostly clear 10 - - - -
27/06:03am 14.5 SSE 15 26 1024.0 - 24.6 Showers Mostly clear 10 - - - -
27/06:00am 14.7 S 15 19 1023.9 F 24.6 Showers Mostly cloudy 15 - - - -
27/05:30am 14.0 S 16 20 1024.0 - 24.2 Showers Mostly clear 10 - - - -
27/05:00am 14.5 S 19 25 1023.8 - 24.0 - Mostly clear 10 - - - -
27/04:30am 15.1 S 17 27 1023.7 - 24.0 - Mostly clear 10 - - - -
27/04:28am 14.5 S 17 21 1023.7 - 24.0 - Partly cloudy 10 - - - -
27/04:00am 14.5 S 17 20 1023.6 - 23.0 - Mostly clear 10 - - - -
27/03:30am 14.6 SSE 19 26 1023.5 - 20.8 Showers Mostly clear 5 - - - -
27/03:00am 15.5 SSE 16 21 1023.6 F 18.8 Distant precip. Partly cloudy 20 - - - -
27/02:30am 15.6 SE 17 21 1023.7 - 18.8 - Mostly clear 10 - - - -
27/02:00am 15.2 SE 17 24 1023.7 - 18.6 - Mostly clear 10 - - - -
27/01:30am 15.4 SSE 16 19 1023.9 - 18.4 Showers Mostly clear 10 - - - -
27/01:00am 15.7 SE 18 22 1024.2 - 18.4 - Mostly clear 10 - - - -
27/12:30am 15.7 SE 16 19 1024.4 - 18.4 - Mostly clear 10 - - - -

Other Formats:

Comma delimited format used in spreadsheet applications
http://www.bom.gov.au/fwo/IDN60701/IDN60701.94767.axf

JavaScript Object Notation format (JSON) in row-major order
http://www.bom.gov.au/fwo/IDN60701/IDN60701.94767.json